Time;durP1;ratioP1;P1;durP2;ratioP2;P2;SDS_P1;SDS_P2;PMS_P1;PMS_P2;Temp;Humidity;BMP_temperature;BMP_pressure;BME280_temperature;BME280_humidity;BME280_pressure;Samples;Min_cycle;Max_cycle;Signal;HPM_P1;HPM_P2
2022/08/02 00:01:30;;;;;;;8.95;3.45;;;14.40;99.90;;;;;;5070345;28;20496;-60
2022/08/02 00:03:56;;;;;;;9.38;3.53;;;14.30;99.90;;;;;;5071504;28;20125;-60
2022/08/02 00:06:21;;;;;;;11.23;3.53;;;14.30;99.90;;;;;;5071234;28;20043;-61
2022/08/02 00:08:47;;;;;;;8.65;3.35;;;14.20;99.90;;;;;;5071588;28;20120;-60
2022/08/02 00:11:12;;;;;;;9.45;4.18;;;14.20;99.90;;;;;;5071278;28;20480;-59
2022/08/02 00:13:38;;;;;;;10.77;4.15;;;14.10;99.90;;;;;;5073834;28;20488;-60
2022/08/02 00:16:04;;;;;;;14.15;3.70;;;14.20;99.90;;;;;;5075159;28;20041;-60
2022/08/02 00:18:29;;;;;;;13.23;3.78;;;14.20;99.90;;;;;;5075261;28;20063;-60
2022/08/02 00:20:55;;;;;;;9.73;3.45;;;14.20;99.90;;;;;;5059880;28;20525;-60
2022/08/02 00:23:21;;;;;;;10.20;4.53;;;14.20;99.90;;;;;;5055316;28;20451;-61
2022/08/02 00:25:46;;;;;;;9.93;3.38;;;14.20;99.90;;;;;;5055179;28;20501;-60
2022/08/02 00:28:12;;;;;;;10.18;3.25;;;14.20;99.90;;;;;;5055217;28;20072;-60
2022/08/02 00:30:38;;;;;;;11.27;4.13;;;14.20;99.90;;;;;;5055205;28;20032;-60
2022/08/02 00:33:04;;;;;;;12.15;3.47;;;14.30;99.90;;;;;;5055069;28;20037;-60
2022/08/02 00:35:31;;;;;;;9.75;3.67;;;14.20;99.90;;;;;;5054921;28;20052;-60
2022/08/02 00:37:57;;;;;;;12.70;3.90;;;14.10;99.90;;;;;;5061626;28;20106;-61
2022/08/02 00:40:23;;;;;;;10.43;4.50;;;14.20;99.90;;;;;;5075004;28;20048;-60
2022/08/02 00:43:06;;;;;;;11.70;4.75;;;14.10;99.90;;;;;;5073511;28;20123;-61
2022/08/02 00:45:36;;;;;;;11.40;4.75;;;14.20;99.90;;;;;;5074752;28;20044;-59
2022/08/02 00:48:03;;;;;;;10.52;4.95;;;14.10;99.90;;;;;;5074948;28;20097;-60
2022/08/02 00:50:29;;;;;;;12.02;4.85;;;14.00;99.90;;;;;;5074848;28;20374;-60
2022/08/02 00:52:55;;;;;;;9.77;4.70;;;14.00;99.90;;;;;;5074628;28;20067;-60
2022/08/02 00:55:21;;;;;;;12.20;5.72;;;14.00;99.90;;;;;;5074525;28;20480;-60
2022/08/02 00:57:47;;;;;;;11.48;5.22;;;13.90;99.90;;;;;;5074455;28;20038;-60
2022/08/02 01:00:13;;;;;;;13.60;5.95;;;13.70;99.90;;;;;;5074687;28;20048;-60
2022/08/02 01:02:39;;;;;;;12.25;5.40;;;13.80;99.90;;;;;;5074666;28;20116;-60
2022/08/02 01:05:05;;;;;;;12.23;5.22;;;13.80;99.90;;;;;;5074348;28;20131;-60
2022/08/02 01:07:31;;;;;;;14.98;6.05;;;13.80;99.90;;;;;;5074678;28;20105;-60
2022/08/02 01:09:57;;;;;;;12.82;5.10;;;13.90;99.90;;;;;;5072928;28;20408;-60
2022/08/02 01:12:23;;;;;;;10.93;5.22;;;13.90;99.90;;;;;;5074319;28;20507;-60
2022/08/02 01:14:51;;;;;;;11.43;3.97;;;13.90;99.90;;;;;;5074131;28;20119;-60
2022/08/02 01:17:54;;;;;;;8.60;3.95;;;13.80;99.90;;;;;;5074323;28;20052;-60
2022/08/02 01:20:56;;;;;;;13.00;4.25;;;13.90;99.90;;;;;;5063649;28;20070;-60
2022/08/02 01:23:40;;;;;;;10.60;3.88;;;13.80;99.90;;;;;;5054306;28;20044;-60
2022/08/02 01:26:20;;;;;;;8.82;3.10;;;13.80;99.90;;;;;;5053514;28;20048;-61
2022/08/02 01:29:00;;;;;;;9.80;3.92;;;13.90;99.90;;;;;;5054282;28;20067;-60
2022/08/02 01:31:28;;;;;;;12.65;4.00;;;13.90;99.90;;;;;;5054018;28;20041;-60
2022/08/02 01:34:09;;;;;;;12.80;3.22;;;13.80;99.90;;;;;;5054082;28;20061;-60
2022/08/02 01:36:41;;;;;;;11.38;4.13;;;13.90;99.90;;;;;;5053913;28;20405;-60
2022/08/02 01:39:13;;;;;;;10.27;3.80;;;13.80;99.90;;;;;;5070304;28;20033;-60
2022/08/02 01:41:40;;;;;;;10.93;4.35;;;13.80;99.90;;;;;;5073692;28;20447;-60
2022/08/02 01:44:06;;;;;;;11.07;3.90;;;13.70;99.90;;;;;;5073644;28;20111;-60
2022/08/02 01:46:33;;;;;;;13.38;3.97;;;13.70;99.90;;;;;;5073771;28;20158;-60
2022/08/02 01:49:03;;;;;;;10.27;3.30;;;13.80;99.90;;;;;;5072502;28;20097;-60
2022/08/02 01:54:17;;;;;;;10.02;3.67;;;13.70;99.90;;;;;;5073373;28;20067;-60
2022/08/02 01:56:44;;;;;;;10.43;3.45;;;13.80;99.90;;;;;;5073271;28;20093;-58
2022/08/02 01:59:15;;;;;;;11.40;4.15;;;13.80;99.90;;;;;;5073353;28;20511;-61
2022/08/02 02:01:42;;;;;;;12.87;3.80;;;13.70;99.90;;;;;;5073574;28;20079;-60
2022/08/02 02:04:10;;;;;;;10.40;3.20;;;13.70;99.90;;;;;;5073501;28;20089;-60
2022/08/02 02:06:38;;;;;;;10.50;3.50;;;13.60;99.90;;;;;;5073161;28;20072;-60
2022/08/02 02:09:04;;;;;;;12.65;3.92;;;13.60;99.90;;;;;;5073501;28;20115;-60
2022/08/02 02:11:31;;;;;;;11.82;4.05;;;13.60;99.90;;;;;;5072098;28;20146;-60
2022/08/02 02:13:59;;;;;;;11.98;3.65;;;13.50;99.90;;;;;;5073261;28;20068;-61
2022/08/02 02:16:26;;;;;;;9.63;3.22;;;13.50;99.90;;;;;;5073077;28;20174;-60
2022/08/02 02:18:53;;;;;;;9.73;3.67;;;13.50;99.90;;;;;;5055218;28;20052;-60
2022/08/02 02:21:18;;;;;;;11.93;3.30;;;13.40;99.90;;;;;;5054065;28;20049;-61
2022/08/02 02:23:44;;;;;;;10.70;3.63;;;13.40;99.90;;;;;;5068178;28;20059;-60
2022/08/02 02:26:13;;;;;;;9.88;3.90;;;13.40;99.90;;;;;;5053000;28;20608;-60
2022/08/02 02:28:42;;;;;;;9.43;3.70;;;13.40;99.90;;;;;;5052958;28;20068;-61
2022/08/02 02:31:14;;;;;;;15.70;4.93;;;13.40;99.90;;;;;;5052839;28;20076;-61
2022/08/02 02:33:47;;;;;;;9.40;4.13;;;13.40;99.90;;;;;;5052615;28;20124;-61
2022/08/02 02:36:16;;;;;;;11.75;4.05;;;13.40;99.90;;;;;;5052886;28;20164;-60
2022/08/02 02:38:44;;;;;;;15.63;5.32;;;13.30;99.90;;;;;;5065632;28;20054;-61
2022/08/02 02:41:11;;;;;;;11.55;3.58;;;13.40;99.90;;;;;;5071154;28;20044;-61
2022/08/02 02:43:38;;;;;;;13.18;3.70;;;13.40;99.90;;;;;;5072518;28;20051;-61
2022/08/02 02:46:06;;;;;;;9.20;4.38;;;13.40;99.90;;;;;;5072462;28;20041;-60
2022/08/02 02:48:33;;;;;;;12.43;4.25;;;13.40;99.90;;;;;;5072723;28;20041;-61
2022/08/02 02:51:02;;;;;;;12.18;3.75;;;13.30;99.90;;;;;;5072578;28;20051;-61
2022/08/02 02:53:29;;;;;;;12.55;4.07;;;13.40;99.90;;;;;;5072408;28;20076;-60
2022/08/02 02:55:56;;;;;;;11.57;3.75;;;13.40;99.90;;;;;;5070998;28;20467;-60
2022/08/02 02:58:22;;;;;;;8.50;3.35;;;13.30;99.90;;;;;;5072181;28;20087;-60
2022/08/02 03:03:33;;;;;;;11.73;3.92;;;13.40;99.90;;;;;;5070882;28;20066;-61
2022/08/02 03:05:58;;;;;;;11.55;4.18;;;13.40;99.90;;;;;;5072143;28;20135;-61
2022/08/02 03:08:24;;;;;;;9.70;3.72;;;13.40;99.90;;;;;;5072272;28;20116;-61
2022/08/02 03:10:50;;;;;;;13.23;5.03;;;13.40;99.90;;;;;;5072050;28;20452;-61
2022/08/02 03:13:17;;;;;;;11.80;5.38;;;13.30;99.90;;;;;;5072037;28;20032;-61
2022/08/02 03:15:46;;;;;;;9.23;3.92;;;13.30;99.90;;;;;;5071836;28;20630;-61
2022/08/02 03:18:29;;;;;;;9.40;3.63;;;13.20;99.90;;;;;;5071988;28;20052;-61
2022/08/02 03:20:59;;;;;;;9.57;4.25;;;13.20;99.90;;;;;;5056528;28;20131;-61
2022/08/02 03:23:25;;;;;;;11.23;4.03;;;13.20;99.90;;;;;;5051816;28;20101;-61
2022/08/02 03:25:51;;;;;;;11.63;4.28;;;13.10;99.90;;;;;;5051917;28;20037;-60
2022/08/02 03:28:16;;;;;;;10.20;4.57;;;13.20;99.90;;;;;;5052103;28;20055;-61
2022/08/02 03:30:42;;;;;;;11.02;4.43;;;13.10;99.90;;;;;;5051953;28;20095;-61
2022/08/02 03:33:09;;;;;;;9.82;4.32;;;13.10;99.90;;;;;;5052077;28;20517;-61
2022/08/02 03:35:36;;;;;;;11.32;4.40;;;13.00;99.90;;;;;;5051626;28;20206;-61
2022/08/02 03:38:03;;;;;;;13.20;4.18;;;13.10;99.90;;;;;;5059009;28;20047;-61
2022/08/02 03:40:30;;;;;;;10.18;4.32;;;13.10;99.90;;;;;;5071765;28;20059;-61
2022/08/02 03:42:56;;;;;;;14.60;5.57;;;13.20;99.90;;;;;;5071863;28;20075;-60
2022/08/02 03:45:24;;;;;;;11.05;4.63;;;13.20;99.90;;;;;;5070514;28;20473;-61
2022/08/02 03:47:51;;;;;;;10.80;4.43;;;13.30;99.90;;;;;;5074501;28;20036;-61
2022/08/02 03:50:18;;;;;;;9.68;3.97;;;13.20;99.90;;;;;;5078498;28;20381;-61
2022/08/02 03:52:45;;;;;;;10.52;4.38;;;13.20;99.90;;;;;;5078317;28;20040;-61
2022/08/02 03:55:12;;;;;;;9.15;4.28;;;13.10;99.90;;;;;;5078530;28;20052;-61
2022/08/02 03:57:39;;;;;;;9.88;4.47;;;13.10;99.90;;;;;;5078460;28;20040;-61
2022/08/02 04:00:10;;;;;;;11.70;4.60;;;13.00;99.90;;;;;;5078410;28;20067;-61
2022/08/02 04:02:36;;;;;;;11.15;4.72;;;13.20;99.90;;;;;;5078224;28;20090;-61
2022/08/02 04:05:02;;;;;;;12.55;4.60;;;13.10;99.90;;;;;;5078280;28;20036;-60
2022/08/02 04:07:28;;;;;;;13.38;5.25;;;13.10;99.90;;;;;;5076747;28;20064;-61
2022/08/02 04:09:53;;;;;;;10.48;4.82;;;13.00;99.90;;;;;;5078346;28;20189;-61
2022/08/02 04:12:19;;;;;;;11.55;5.55;;;13.00;99.90;;;;;;5078244;28;20041;-61
2022/08/02 04:14:45;;;;;;;10.18;4.85;;;13.00;99.90;;;;;;5078112;28;20047;-61
2022/08/02 04:17:13;;;;;;;13.75;5.35;;;13.00;99.90;;;;;;5078345;28;20048;-61
2022/08/02 04:20:18;;;;;;;10.75;5.10;;;13.20;99.90;;;;;;5073147;28;20055;-61
2022/08/02 04:23:08;;;;;;;11.48;4.53;;;13.10;99.90;;;;;;5054612;28;20146;-60
2022/08/02 04:25:34;;;;;;;12.65;5.95;;;13.20;99.90;;;;;;5058387;28;20374;-61
2022/08/02 04:28:01;;;;;;;11.35;5.10;;;13.20;99.90;;;;;;5058144;28;20036;-61
2022/08/02 04:30:28;;;;;;;13.18;5.55;;;13.10;99.90;;;;;;5057951;28;20477;-62
2022/08/02 04:32:54;;;;;;;15.32;5.53;;;13.10;99.90;;;;;;5058233;28;20157;-61
2022/08/02 04:35:21;;;;;;;12.52;5.20;;;13.10;99.90;;;;;;5057732;28;20064;-61
2022/08/02 04:37:47;;;;;;;10.93;5.00;;;13.10;99.90;;;;;;5063094;28;20045;-61
2022/08/02 04:40:14;;;;;;;15.88;5.38;;;13.10;99.90;;;;;;5077843;28;20215;-61
2022/08/02 04:42:41;;;;;;;11.18;5.05;;;13.20;99.90;;;;;;5077764;28;20068;-61
2022/08/02 04:45:08;;;;;;;12.85;5.85;;;13.20;99.90;;;;;;5077778;28;20044;-61
2022/08/02 04:47:34;;;;;;;10.68;5.97;;;13.10;99.90;;;;;;5077890;28;20028;-61
2022/08/02 04:50:00;;;;;;;10.68;5.50;;;13.20;99.90;;;;;;5078046;28;20067;-60
2022/08/02 04:52:25;;;;;;;12.05;4.97;;;13.40;99.90;;;;;;5077835;28;20044;-61
2022/08/02 04:54:52;;;;;;;11.45;5.28;;;13.40;99.90;;;;;;5077818;28;20036;-61
2022/08/02 05:00:05;;;;;;;12.60;5.35;;;13.50;99.90;;;;;;5074437;28;20102;-61
2022/08/02 05:02:30;;;;;;;10.32;5.03;;;13.60;99.90;;;;;;5074626;28;20139;-61
2022/08/02 05:04:56;;;;;;;14.60;6.10;;;13.70;99.90;;;;;;5073315;28;20123;-61
2022/08/02 05:07:22;;;;;;;13.25;5.13;;;13.70;99.90;;;;;;5074579;28;20044;-60
2022/08/02 05:09:47;;;;;;;11.23;5.13;;;13.80;99.90;;;;;;5074521;28;20635;-61
2022/08/02 05:12:13;;;;;;;10.52;5.28;;;13.80;99.90;;;;;;5074358;28;20047;-53
2022/08/02 05:14:39;;;;;;;12.35;4.80;;;14.00;99.90;;;;;;5074448;28;20047;-48
2022/08/02 05:17:04;;;;;;;10.68;5.03;;;14.00;99.90;;;;;;5074587;28;20041;-47
2022/08/02 05:19:30;;;;;;;11.20;5.05;;;14.00;99.90;;;;;;5070647;28;20033;-47
2022/08/02 05:21:56;;;;;;;13.32;5.03;;;14.30;99.90;;;;;;5054250;28;20128;-48
2022/08/02 05:24:21;;;;;;;12.57;5.00;;;14.30;99.90;;;;;;5054115;28;20037;-48
2022/08/02 05:26:47;;;;;;;12.27;5.50;;;14.30;99.90;;;;;;5054055;28;20056;-49
2022/08/02 05:29:12;;;;;;;11.60;4.47;;;14.40;99.90;;;;;;5054472;28;20029;-48
2022/08/02 05:31:38;;;;;;;11.27;4.40;;;14.50;99.90;;;;;;5069596;28;20449;-48
2022/08/02 05:34:04;;;;;;;12.20;5.25;;;14.40;99.90;;;;;;5054151;28;20048;-48
2022/08/02 05:36:29;;;;;;;13.85;4.93;;;14.50;99.90;;;;;;5054014;28;20040;-49
2022/08/02 05:38:55;;;;;;;11.52;5.03;;;14.50;99.90;;;;;;5068582;28;20055;-50
2022/08/02 05:41:21;;;;;;;11.80;4.80;;;14.40;99.90;;;;;;5073856;28;20063;-47
2022/08/02 05:43:46;;;;;;;10.65;4.50;;;14.60;99.90;;;;;;5073919;28;20083;-51
2022/08/02 05:46:12;;;;;;;14.43;4.63;;;14.60;99.90;;;;;;5074016;28;20036;-46
2022/08/02 05:48:38;;;;;;;10.93;4.50;;;14.80;99.90;;;;;;5074023;28;20156;-49
2022/08/02 05:51:10;;;;;;;10.32;4.45;;;14.90;99.90;;;;;;5073849;28;20052;-48
2022/08/02 05:53:49;;;;;;;12.25;4.47;;;15.00;99.90;;;;;;5072690;28;20040;-48
2022/08/02 05:56:24;;;;;;;9.80;3.70;;;15.10;99.90;;;;;;5073686;28;20048;-48
2022/08/02 05:59:20;;;;;;;11.60;4.03;;;15.10;99.90;;;;;;5073919;28;20074;-47
2022/08/02 06:01:49;;;;;;;9.80;4.15;;;15.30;99.90;;;;;;5072301;28;20154;-48
2022/08/02 06:04:51;;;;;;;7.55;3.65;;;15.50;99.90;;;;;;5073465;28;20488;-48
2022/08/02 06:07:18;;;;;;;9.82;4.25;;;15.60;99.90;;;;;;5056696;28;20056;-47
2022/08/02 06:09:46;;;;;;;16.38;4.20;;;15.70;99.90;;;;;;5073459;28;20373;-48
2022/08/02 06:12:15;;;;;;;11.10;4.03;;;15.80;99.90;;;;;;5072895;28;20141;-46
2022/08/02 06:14:41;;;;;;;9.13;3.38;;;16.00;99.90;;;;;;5073164;28;20047;-47
2022/08/02 06:17:07;;;;;;;12.55;4.07;;;16.00;99.90;;;;;;5072255;28;20036;-51
2022/08/02 06:19:37;;;;;;;10.65;3.53;;;16.00;99.90;;;;;;5069093;28;20075;-52
2022/08/02 06:22:16;;;;;;;10.43;4.35;;;16.20;99.90;;;;;;5053363;28;20040;-52
2022/08/02 06:24:45;;;;;;;12.88;4.03;;;16.40;99.90;;;;;;5053562;28;20055;-54
2022/08/02 06:27:14;;;;;;;10.65;3.30;;;16.50;99.90;;;;;;5053003;28;20047;-49
2022/08/02 06:29:41;;;;;;;8.07;3.65;;;16.60;99.90;;;;;;5053024;28;20128;-48
2022/08/02 06:32:08;;;;;;;9.18;3.53;;;16.60;99.90;;;;;;5052985;28;20048;-47
2022/08/02 06:34:38;;;;;;;9.55;2.90;;;16.70;99.90;;;;;;5052848;28;20063;-48
2022/08/02 06:37:25;;;;;;;10.02;3.38;;;16.70;99.90;;;;;;5052969;28;20045;-52
2022/08/02 06:40:00;;;;;;;10.23;3.15;;;16.90;99.90;;;;;;5033209;28;20068;-54
2022/08/02 06:42:42;;;;;;;9.30;3.10;;;16.90;99.90;;;;;;5032699;28;20052;-53
2022/08/02 06:45:08;;;;;;;8.52;2.55;;;17.00;99.90;;;;;;5032066;28;20045;-53
2022/08/02 06:47:34;;;;;;;17.27;3.85;;;17.10;99.90;;;;;;5031571;28;20045;-48
2022/08/02 06:50:00;;;;;;;8.88;2.83;;;17.20;99.90;;;;;;5031711;28;20111;-47
2022/08/02 06:52:28;;;;;;;10.85;3.35;;;17.40;99.90;;;;;;5031371;28;20037;-52
2022/08/02 06:54:55;;;;;;;9.32;3.03;;;17.60;99.90;;;;;;5031434;28;20441;-54
2022/08/02 06:57:20;;;;;;;9.38;2.70;;;17.70;99.90;;;;;;5032104;28;20056;-50
2022/08/02 06:59:46;;;;;;;11.88;3.17;;;17.80;99.90;;;;;;5030565;28;20049;-51
2022/08/02 07:02:12;;;;;;;11.00;3.38;;;17.80;99.90;;;;;;5037008;28;20044;-50
2022/08/02 07:04:37;;;;;;;10.23;2.75;;;17.90;99.90;;;;;;5031714;28;20029;-49
2022/08/02 07:07:03;;;;;;;7.65;2.40;;;18.00;99.90;;;;;;5031851;28;20493;-48
2022/08/02 07:09:29;;;;;;;7.35;2.30;;;18.00;99.90;;;;;;5031886;28;20394;-47
2022/08/02 07:11:54;;;;;;;9.60;2.42;;;18.00;99.90;;;;;;5030201;28;20102;-49
2022/08/02 07:14:20;;;;;;;7.28;2.50;;;18.20;99.90;;;;;;5031241;28;20045;-48
2022/08/02 07:16:46;;;;;;;6.03;2.08;;;18.00;99.90;;;;;;5031343;28;20037;-51
2022/08/02 07:19:12;;;;;;;9.25;2.17;;;18.10;99.90;;;;;;5047551;28;20129;-51
2022/08/02 07:21:37;;;;;;;8.02;2.40;;;18.10;99.90;;;;;;5050695;28;20045;-49
2022/08/02 07:24:03;;;;;;;8.48;2.13;;;18.10;99.90;;;;;;5050106;28;20070;-48
2022/08/02 07:26:29;;;;;;;5.88;1.90;;;18.30;99.90;;;;;;5066365;28;20111;-52
2022/08/02 07:28:55;;;;;;;7.72;2.35;;;18.30;99.90;;;;;;5050904;28;20037;-48
2022/08/02 07:31:20;;;;;;;7.57;2.10;;;18.50;99.90;;;;;;5051191;28;20103;-51
2022/08/02 07:33:46;;;;;;;11.23;2.60;;;18.60;99.90;;;;;;5051124;28;20037;-47
2022/08/02 07:36:12;;;;;;;8.02;2.08;;;18.60;99.90;;;;;;5051644;28;20041;-47
2022/08/02 07:38:37;;;;;;;7.80;1.83;;;18.70;99.90;;;;;;5063513;28;20737;-48
2022/08/02 07:41:03;;;;;;;8.43;2.00;;;18.80;99.90;;;;;;5058902;28;20638;-48
2022/08/02 07:43:29;;;;;;;7.32;2.13;;;18.90;99.90;;;;;;5032210;28;20076;-48
2022/08/02 07:45:54;;;;;;;8.27;2.50;;;19.00;99.90;;;;;;5036679;28;20036;-47
2022/08/02 07:48:20;;;;;;;4.95;1.65;;;19.10;99.90;;;;;;5049886;28;20041;-49
2022/08/02 07:50:47;;;;;;;4.78;1.63;;;19.20;99.90;;;;;;5050977;28;20080;-48
2022/08/02 07:53:12;;;;;;;8.30;1.60;;;19.40;99.90;;;;;;5051037;28;20052;-51
2022/08/02 07:55:38;;;;;;;7.03;1.77;;;19.40;99.90;;;;;;5050818;28;20052;-48
2022/08/02 07:58:04;;;;;;;7.65;1.60;;;19.60;99.90;;;;;;5050711;28;20493;-49
2022/08/02 08:00:29;;;;;;;9.15;1.80;;;19.70;99.90;;;;;;5050670;28;20060;-53
2022/08/02 08:02:55;;;;;;;6.13;1.67;;;19.90;99.90;;;;;;5050746;28;20037;-48
2022/08/02 08:05:22;;;;;;;4.22;1.67;;;20.00;99.90;;;;;;5050812;28;20048;-48
2022/08/02 08:07:48;;;;;;;4.13;1.52;;;20.00;99.90;;;;;;5049158;28;20045;-52
2022/08/02 08:10:13;;;;;;;5.10;1.55;;;20.00;99.90;;;;;;5050993;28;20094;-47
2022/08/02 08:12:39;;;;;;;5.65;1.98;;;20.10;99.90;;;;;;5050683;28;20056;-53
2022/08/02 08:15:05;;;;;;;4.32;1.45;;;20.20;99.90;;;;;;5051430;28;20057;-50
2022/08/02 08:17:31;;;;;;;5.13;1.40;;;20.30;99.90;;;;;;5051225;28;20037;-48
2022/08/02 08:19:57;;;;;;;5.40;1.40;;;20.30;99.90;;;;;;5044118;28;20047;-49
2022/08/02 08:22:23;;;;;;;4.55;1.20;;;20.40;99.90;;;;;;5031354;28;20498;-50
2022/08/02 08:24:49;;;;;;;4.72;1.30;;;20.50;99.90;;;;;;5030209;28;20049;-48
2022/08/02 08:27:21;;;;;;;6.22;1.52;;;20.50;99.90;;;;;;5031630;28;20037;-48
2022/08/02 08:29:47;;;;;;;3.85;1.20;;;20.50;99.90;;;;;;5031528;28;20497;-52
2022/08/02 08:32:13;;;;;;;5.60;1.27;;;20.60;99.90;;;;;;5031125;28;20192;-49
2022/08/02 08:34:39;;;;;;;4.65;1.20;;;20.50;99.90;;;;;;5034008;28;20053;-49
2022/08/02 08:37:05;;;;;;;4.30;1.20;;;20.70;99.90;;;;;;5035654;28;20574;-48
2022/08/02 08:39:30;;;;;;;4.95;1.40;;;20.70;99.90;;;;;;5074190;28;20404;-52
2022/08/02 08:41:56;;;;;;;5.45;1.10;;;20.80;99.90;;;;;;5075133;28;20047;-51
2022/08/02 08:44:22;;;;;;;5.50;1.50;;;20.90;99.90;;;;;;5074953;28;20113;-50
2022/08/02 08:46:48;;;;;;;4.35;1.20;;;20.90;99.90;;;;;;5074990;28;20455;-48
2022/08/02 08:49:30;;;;;;;4.88;1.45;;;21.00;99.90;;;;;;5075158;28;20063;-47
2022/08/02 08:51:58;;;;;;;4.38;1.20;;;21.10;99.90;;;;;;5075009;28;20040;-50
2022/08/02 08:54:26;;;;;;;6.07;1.10;;;21.20;99.90;;;;;;5074867;28;20047;-50
2022/08/02 08:56:54;;;;;;;4.80;1.40;;;21.30;99.90;;;;;;5074831;28;20128;-49
2022/08/02 08:59:19;;;;;;;3.70;1.10;;;21.30;99.90;;;;;;5074746;28;20049;-49
2022/08/02 09:01:46;;;;;;;5.63;1.17;;;21.50;99.90;;;;;;5074951;28;20037;-51
2022/08/02 09:04:11;;;;;;;4.70;1.25;;;21.60;99.90;;;;;;5074797;28;20102;-48
2022/08/02 09:06:41;;;;;;;4.97;1.50;;;21.70;99.90;;;;;;5074644;28;20044;-52
2022/08/02 09:09:07;;;;;;;3.92;1.10;;;21.70;99.90;;;;;;5073122;28;20040;-50
2022/08/02 09:11:32;;;;;;;8.43;1.90;;;21.80;99.90;;;;;;5040433;28;20409;-50
2022/08/02 09:14:00;;;;;;;4.53;1.30;;;21.80;99.90;;;;;;5041951;28;20025;-48
2022/08/02 09:16:40;;;;;;;4.38;1.45;;;22.00;99.90;;;;;;5044728;28;20037;-49
2022/08/02 09:19:24;;;;;;;5.47;1.50;;;22.10;99.90;;;;;;5044520;28;20033;-48
2022/08/02 09:22:01;;;;;;;6.35;1.60;;;22.20;99.90;;;;;;5039461;28;20452;-49
2022/08/02 09:24:27;;;;;;;4.47;1.35;;;22.30;99.90;;;;;;5054104;28;20451;-48
2022/08/02 09:26:52;;;;;;;5.78;1.50;;;22.30;99.90;;;;;;5053230;28;20131;-50
2022/08/02 09:29:23;;;;;;;5.80;1.33;;;22.50;99.90;;;;;;5054272;28;20120;-53
2022/08/02 09:31:50;;;;;;;4.40;1.23;;;22.60;99.90;;;;;;5054209;28;20064;-53
2022/08/02 09:34:16;;;;;;;5.45;1.60;;;22.80;99.90;;;;;;5053921;28;20600;-52
2022/08/02 09:36:44;;;;;;;4.85;1.30;;;22.90;99.90;;;;;;5054165;28;20056;-48
2022/08/02 09:39:15;;;;;;;5.97;1.75;;;23.00;99.90;;;;;;5070597;28;20154;-53
2022/08/02 09:41:44;;;;;;;4.65;1.50;;;23.00;99.90;;;;;;5074063;28;20076;-52
2022/08/02 09:44:12;;;;;;;5.05;1.40;;;23.00;99.90;;;;;;5074064;28;20115;-48
2022/08/02 09:46:42;;;;;;;5.75;2.13;;;23.00;99.90;;;;;;5073437;28;20397;-49
2022/08/02 09:49:11;;;;;;;4.80;1.40;;;22.90;99.90;;;;;;5073834;28;20039;-48
2022/08/02 09:51:51;;;;;;;6.53;1.60;;;22.90;99.90;;;;;;5074001;28;20043;-48
2022/08/02 09:54:25;;;;;;;4.43;1.60;;;23.00;99.90;;;;;;5073770;28;20569;-49
2022/08/02 09:56:53;;;;;;;6.75;1.80;;;23.20;99.90;;;;;;5073946;28;20439;-47
2022/08/02 09:59:21;;;;;;;10.23;3.13;;;23.30;99.90;;;;;;5073832;28;20055;-48
2022/08/02 10:01:49;;;;;;;6.50;1.90;;;23.50;99.90;;;;;;5073664;28;20041;-52
2022/08/02 10:04:20;;;;;;;4.78;1.70;;;23.50;99.90;;;;;;5073827;28;20055;-49
2022/08/02 10:06:45;;;;;;;5.15;1.98;;;23.40;99.90;;;;;;5073666;28;20037;-48
2022/08/02 10:09:12;;;;;;;7.15;2.08;;;23.40;99.90;;;;;;5073638;28;20400;-49
2022/08/02 10:11:38;;;;;;;6.35;2.05;;;23.30;99.90;;;;;;5073652;28;20037;-48
2022/08/02 10:14:06;;;;;;;8.25;2.33;;;23.20;99.90;;;;;;5073636;28;20044;-48
2022/08/02 10:16:38;;;;;;;7.00;2.20;;;23.40;99.90;;;;;;5073443;28;20044;-49
2022/08/02 10:19:04;;;;;;;7.35;2.20;;;23.50;99.90;;;;;;5073365;28;20079;-49
2022/08/02 10:21:43;;;;;;;5.10;2.00;;;23.70;99.90;;;;;;5051414;28;20048;-49
2022/08/02 10:24:12;;;;;;;6.20;2.00;;;23.80;99.90;;;;;;5041724;28;20350;-48
2022/08/02 10:26:39;;;;;;;6.63;2.35;;;23.80;99.90;;;;;;5044654;28;20037;-48
2022/08/02 10:29:07;;;;;;;6.50;2.50;;;23.80;99.90;;;;;;5053297;28;20045;-48
2022/08/02 10:31:39;;;;;;;8.32;2.55;;;23.70;99.90;;;;;;5053345;28;20039;-49
2022/08/02 10:34:09;;;;;;;6.75;3.00;;;23.60;99.90;;;;;;5053124;28;20120;-47
2022/08/02 10:36:38;;;;;;;8.27;3.08;;;23.60;99.90;;;;;;5068323;28;20497;-47
2022/08/02 10:39:05;;;;;;;6.93;3.03;;;23.70;99.90;;;;;;5068729;28;20040;-48
2022/08/02 10:41:39;;;;;;;7.78;3.00;;;23.90;99.90;;;;;;5072738;28;20477;-47
2022/08/02 10:44:05;;;;;;;6.68;2.78;;;24.10;99.90;;;;;;5073070;28;20105;-48
2022/08/02 10:46:35;;;;;;;9.38;2.88;;;24.20;99.90;;;;;;5072851;28;20071;-48
2022/08/02 10:49:07;;;;;;;8.02;2.80;;;24.30;99.90;;;;;;5073081;28;20114;-48
2022/08/02 10:51:54;;;;;;;8.40;3.10;;;24.40;99.90;;;;;;5071612;28;20696;-48
2022/08/02 10:54:58;;;;;;;9.05;3.55;;;24.40;99.90;;;;;;5071455;28;20431;-54
2022/08/02 10:57:35;;;;;;;6.78;3.20;;;24.20;99.90;;;;;;5045784;28;20045;-56
2022/08/02 11:00:05;;;;;;;9.23;3.47;;;24.30;99.90;;;;;;5057413;28;20047;-54
2022/08/02 11:02:36;;;;;;;9.20;3.40;;;24.30;99.90;;;;;;5052799;28;20041;-55
2022/08/02 11:05:06;;;;;;;6.95;3.45;;;24.30;99.90;;;;;;5052575;28;20049;-52
2022/08/02 11:07:46;;;;;;;8.20;3.05;;;24.10;99.90;;;;;;5052615;28;20044;-54
2022/08/02 11:10:24;;;;;;;7.10;2.75;;;24.00;99.90;;;;;;5052478;28;20079;-55
2022/08/02 11:13:00;;;;;;;7.50;2.83;;;24.10;99.90;;;;;;5052542;28;20049;-55
2022/08/02 11:15:27;;;;;;;7.68;2.55;;;24.00;99.90;;;;;;5052389;28;20064;-55
2022/08/02 11:17:55;;;;;;;10.02;3.80;;;24.10;99.90;;;;;;5052296;28;20456;-55
2022/08/02 11:20:22;;;;;;;7.80;3.38;;;24.20;99.90;;;;;;5052122;28;20037;-51
2022/08/02 11:22:50;;;;;;;8.10;3.20;;;24.10;99.90;;;;;;5052279;28;20047;-55
2022/08/02 11:25:22;;;;;;;6.47;3.03;;;24.00;99.90;;;;;;5052696;28;20120;-54
2022/08/02 11:27:51;;;;;;;7.20;3.42;;;24.10;99.90;;;;;;5052416;28;20040;-53
2022/08/02 11:30:17;;;;;;;7.40;3.10;;;24.30;99.90;;;;;;5052359;28;20041;-53
2022/08/02 11:32:43;;;;;;;6.90;3.13;;;24.40;99.90;;;;;;5052199;28;20041;-55
2022/08/02 11:35:09;;;;;;;11.50;3.00;;;24.50;99.90;;;;;;5052138;28;20092;-53
2022/08/02 11:37:45;;;;;;;6.32;3.70;;;24.40;99.90;;;;;;5055595;28;20084;-54
2022/08/02 11:40:14;;;;;;;6.95;2.78;;;24.30;99.90;;;;;;5072269;28;20063;-53
2022/08/02 11:42:43;;;;;;;8.18;2.85;;;24.40;99.90;;;;;;5072211;28;20067;-53
2022/08/02 11:45:10;;;;;;;8.45;3.85;;;24.50;99.90;;;;;;5072146;28;20408;-54
2022/08/02 11:47:50;;;;;;;8.55;3.85;;;24.40;99.90;;;;;;5070702;28;20044;-54
2022/08/02 11:50:16;;;;;;;7.00;3.75;;;24.40;99.90;;;;;;5046330;28;20548;-53
2022/08/02 11:52:43;;;;;;;9.20;4.18;;;24.60;99.90;;;;;;5041256;28;20501;-57
2022/08/02 11:55:10;;;;;;;7.68;4.47;;;24.40;99.90;;;;;;5042549;28;20033;-55
2022/08/02 11:57:37;;;;;;;10.10;5.45;;;24.40;99.90;;;;;;5042477;28;20041;-55
2022/08/02 12:00:12;;;;;;;8.90;4.70;;;24.40;99.90;;;;;;5040881;28;20041;-55
2022/08/02 12:02:46;;;;;;;8.75;3.83;;;24.30;99.90;;;;;;5039317;28;20065;-55
2022/08/02 12:05:16;;;;;;;8.00;4.20;;;24.40;99.90;;;;;;5042795;28;20037;-54
2022/08/02 12:07:44;;;;;;;7.78;3.10;;;24.40;99.90;;;;;;5041678;28;20498;-55
2022/08/02 12:10:13;;;;;;;7.05;2.60;;;24.30;99.90;;;;;;5042990;28;20060;-56
2022/08/02 12:12:52;;;;;;;5.93;2.42;;;24.30;99.90;;;;;;5053574;28;20171;-53
2022/08/02 12:15:40;;;;;;;11.07;3.05;;;24.10;99.90;;;;;;5055773;28;20119;-55
2022/08/02 12:21:25;;;;;;;6.70;2.85;;;23.90;99.90;;;;;;5037894;28;20588;-55
2022/08/02 12:23:51;;;;;;;7.18;3.17;;;24.00;99.90;;;;;;5035718;28;20397;-55
2022/08/02 12:26:17;;;;;;;5.97;2.92;;;23.90;99.90;;;;;;5035686;28;20072;-55
2022/08/02 12:28:43;;;;;;;7.43;3.40;;;23.80;99.90;;;;;;5035421;28;20474;-53
2022/08/02 12:31:12;;;;;;;8.88;3.78;;;23.80;99.90;;;;;;5035448;28;20034;-56
2022/08/02 12:33:48;;;;;;;8.88;3.97;;;23.70;99.90;;;;;;5035429;28;20048;-56
2022/08/02 12:36:26;;;;;;;7.15;4.07;;;23.60;99.90;;;;;;5035721;28;20053;-54
2022/08/02 12:38:59;;;;;;;9.35;4.70;;;23.60;99.90;;;;;;5057582;28;20052;-53
2022/08/02 12:41:27;;;;;;;7.88;4.82;;;23.50;99.90;;;;;;5043337;28;20106;-55
2022/08/02 12:43:53;;;;;;;10.20;5.15;;;23.50;99.90;;;;;;5045715;28;20029;-53
2022/08/02 12:46:22;;;;;;;9.40;4.63;;;23.40;99.90;;;;;;5044043;28;20091;-57
2022/08/02 12:48:48;;;;;;;9.02;4.75;;;23.50;99.90;;;;;;5044065;28;20107;-55
2022/08/02 12:51:24;;;;;;;10.77;5.22;;;23.50;99.90;;;;;;5045465;28;20040;-54
2022/08/02 12:53:51;;;;;;;9.27;4.95;;;23.60;99.90;;;;;;5045560;28;20033;-54
2022/08/02 12:56:28;;;;;;;9.50;4.43;;;23.60;99.90;;;;;;5042719;28;20600;-53
2022/08/02 12:58:54;;;;;;;8.77;4.70;;;23.70;99.90;;;;;;5043368;28;20029;-55
2022/08/02 13:01:25;;;;;;;9.60;5.07;;;23.60;99.90;;;;;;5044784;28;20056;-55
2022/08/02 13:03:53;;;;;;;10.65;5.82;;;23.60;99.90;;;;;;5045695;28;20037;-52